sensor_id;sensor_type;location;lat;lon;timestamp;pressure;altitude;pressure_sealevel;temperature;humidity
43115;BME280;28727;50.068;14.452;2022-08-24T00:00:36;99572.69;;;20.70;72.96
43115;BME280;28727;50.068;14.452;2022-08-24T00:03:11;99568.38;;;20.69;73.03
43115;BME280;28727;50.068;14.452;2022-08-24T00:05:43;99566.50;;;20.70;73.41
43115;BME280;28727;50.068;14.452;2022-08-24T00:08:16;99565.47;;;20.71;73.38
43115;BME280;28727;50.068;14.452;2022-08-24T00:10:49;99564.88;;;20.69;73.60
43115;BME280;28727;50.068;14.452;2022-08-24T00:13:21;99564.75;;;20.64;73.65
43115;BME280;28727;50.068;14.452;2022-08-24T00:15:54;99566.81;;;20.62;73.90
43115;BME280;28727;50.068;14.452;2022-08-24T00:18:30;99566.81;;;20.62;74.02
43115;BME280;28727;50.068;14.452;2022-08-24T00:21:02;99561.09;;;20.58;74.56
43115;BME280;28727;50.068;14.452;2022-08-24T00:23:34;99561.09;;;20.58;74.67
43115;BME280;28727;50.068;14.452;2022-08-24T00:26:07;99558.63;;;20.57;74.89
43115;BME280;28727;50.068;14.452;2022-08-24T00:28:41;99554.34;;;20.56;74.96
43115;BME280;28727;50.068;14.452;2022-08-24T00:31:13;99549.19;;;20.54;74.84
43115;BME280;28727;50.068;14.452;2022-08-24T00:33:45;99561.19;;;20.52;75.08
43115;BME280;28727;50.068;14.452;2022-08-24T00:36:19;99556.66;;;20.52;75.02
43115;BME280;28727;50.068;14.452;2022-08-24T00:38:52;99548.59;;;20.52;74.90
43115;BME280;28727;50.068;14.452;2022-08-24T00:41:24;99546.94;;;20.51;74.79
43115;BME280;28727;50.068;14.452;2022-08-24T00:43:59;99543.44;;;20.51;74.63
43115;BME280;28727;50.068;14.452;2022-08-24T00:46:57;99552.09;;;20.53;74.90
43115;BME280;28727;50.068;14.452;2022-08-24T00:50:28;99549.41;;;20.53;75.08
43115;BME280;28727;50.068;14.452;2022-08-24T00:52:44;99556.66;;;20.52;75.03
43115;BME280;28727;50.068;14.452;2022-08-24T00:55:23;99557.25;;;20.54;75.01
43115;BME280;28727;50.068;14.452;2022-08-24T00:58:00;99556.22;;;20.55;75.20
43115;BME280;28727;50.068;14.452;2022-08-24T01:00:42;99549.53;;;20.58;75.03
43115;BME280;28727;50.068;14.452;2022-08-24T01:03:18;99550.84;;;20.55;74.96
43115;BME280;28727;50.068;14.452;2022-08-24T01:05:50;99558.63;;;20.57;74.91
43115;BME280;28727;50.068;14.452;2022-08-24T01:08:23;99560.28;;;20.58;74.89
43115;BME280;28727;50.068;14.452;2022-08-24T01:10:59;99558.41;;;20.58;74.96
43115;BME280;28727;50.068;14.452;2022-08-24T01:13:31;99553.06;;;20.58;75.02
43115;BME280;28727;50.068;14.452;2022-08-24T01:16:06;99560.50;;;20.56;75.36
43115;BME280;28727;50.068;14.452;2022-08-24T01:18:39;99555.38;;;20.55;75.56
43115;BME280;28727;50.068;14.452;2022-08-24T01:21:39;99551.41;;;20.57;75.50
43115;BME280;28727;50.068;14.452;2022-08-24T01:24:13;99553.88;;;20.59;75.39
43115;BME280;28727;50.068;14.452;2022-08-24T01:26:48;99551.41;;;20.57;75.43
43115;BME280;28727;50.068;14.452;2022-08-24T01:29:26;99545.91;;;20.52;75.53
43115;BME280;28727;50.068;14.452;2022-08-24T01:32:01;99555.00;;;20.51;76.00
43115;BME280;28727;50.068;14.452;2022-08-24T01:34:33;99559.56;;;20.51;76.09
43115;BME280;28727;50.068;14.452;2022-08-24T01:37:07;99550.94;;;20.49;75.86
43115;BME280;28727;50.068;14.452;2022-08-24T01:39:43;99546.59;;;20.48;75.99
43115;BME280;28727;50.068;14.452;2022-08-24T01:42:15;99550.53;;;20.45;76.21
43115;BME280;28727;50.068;14.452;2022-08-24T01:44:47;99549.72;;;20.44;76.35
43115;BME280;28727;50.068;14.452;2022-08-24T01:47:19;99559.88;;;20.42;76.21
43115;BME280;28727;50.068;14.452;2022-08-24T01:49:51;99548.91;;;20.44;76.50
43115;BME280;28727;50.068;14.452;2022-08-24T01:52:25;99554.88;;;20.46;76.21
43115;BME280;28727;50.068;14.452;2022-08-24T01:55:17;99551.38;;;20.46;76.14
43115;BME280;28727;50.068;14.452;2022-08-24T01:57:55;99552.41;;;20.44;76.20
43115;BME280;28727;50.068;14.452;2022-08-24T02:00:28;99552.66;;;20.43;76.36
43115;BME280;28727;50.068;14.452;2022-08-24T02:03:00;99556.75;;;20.46;76.25
43115;BME280;28727;50.068;14.452;2022-08-24T02:05:33;99560.47;;;20.44;76.32
43115;BME280;28727;50.068;14.452;2022-08-24T02:08:06;99562.94;;;20.46;76.26
43115;BME280;28727;50.068;14.452;2022-08-24T02:10:38;99571.81;;;20.47;76.28
43115;BME280;28727;50.068;14.452;2022-08-24T02:13:10;99571.81;;;20.47;76.25
43115;BME280;28727;50.068;14.452;2022-08-24T02:15:42;99568.28;;;20.46;76.36
43115;BME280;28727;50.068;14.452;2022-08-24T02:18:18;99563.75;;;20.47;76.33
43115;BME280;28727;50.068;14.452;2022-08-24T02:20:50;99562.94;;;20.46;76.43
43115;BME280;28727;50.068;14.452;2022-08-24T02:23:24;99558.38;;;20.47;75.99
43115;BME280;28727;50.068;14.452;2022-08-24T02:25:56;99564.56;;;20.47;76.00
43115;BME280;28727;50.068;14.452;2022-08-24T02:28:28;99568.06;;;20.48;75.87
43115;BME280;28727;50.068;14.452;2022-08-24T02:31:03;99571.81;;;20.47;75.94
43115;BME280;28727;50.068;14.452;2022-08-24T02:33:37;99567.13;;;20.42;76.42
43115;BME280;28727;50.068;14.452;2022-08-24T02:36:10;99572.47;;;20.42;76.62
43115;BME280;28727;50.068;14.452;2022-08-24T02:38:59;99569.81;;;20.42;76.52
43115;BME280;28727;50.068;14.452;2022-08-24T02:41:31;99574.00;;;20.38;76.52
43115;BME280;28727;50.068;14.452;2022-08-24T02:44:04;99576.28;;;20.34;76.98
43115;BME280;28727;50.068;14.452;2022-08-24T02:46:37;99573.59;;;20.34;77.11
43115;BME280;28727;50.068;14.452;2022-08-24T02:49:11;99577.72;;;20.37;77.02
43115;BME280;28727;50.068;14.452;2022-08-24T02:51:45;99575.25;;;20.35;76.92
43115;BME280;28727;50.068;14.452;2022-08-24T02:54:20;99577.72;;;20.37;76.73
43115;BME280;28727;50.068;14.452;2022-08-24T02:56:55;99580.41;;;20.37;76.65
43115;BME280;28727;50.068;14.452;2022-08-24T02:59:27;99573.19;;;20.37;76.54
43115;BME280;28727;50.068;14.452;2022-08-24T03:01:59;99575.03;;;20.37;76.54
43115;BME280;28727;50.068;14.452;2022-08-24T03:04:31;99575.38;;;20.40;76.25
43115;BME280;28727;50.068;14.452;2022-08-24T03:07:04;99580.31;;;20.43;76.03
43115;BME280;28727;50.068;14.452;2022-08-24T03:09:36;99574.13;;;20.43;76.09
43115;BME280;28727;50.068;14.452;2022-08-24T03:12:08;99577.47;;;20.38;76.35
43115;BME280;28727;50.068;14.452;2022-08-24T03:14:41;99571.53;;;20.36;76.58
43115;BME280;28727;50.068;14.452;2022-08-24T03:17:12;99574.00;;;20.38;76.58
43115;BME280;28727;50.068;14.452;2022-08-24T03:19:44;99571.88;;;20.40;76.46
43115;BME280;28727;50.068;14.452;2022-08-24T03:22:16;99574.56;;;20.40;76.53
43115;BME280;28727;50.068;14.452;2022-08-24T03:24:49;99576.44;;;20.39;76.43
43115;BME280;28727;50.068;14.452;2022-08-24T03:27:23;99578.28;;;20.39;76.59
43115;BME280;28727;50.068;14.452;2022-08-24T03:29:56;99577.25;;;20.40;76.68
43115;BME280;28727;50.068;14.452;2022-08-24T03:32:28;99568.38;;;20.39;76.56
43115;BME280;28727;50.068;14.452;2022-08-24T03:35:00;99572.47;;;20.42;76.54
43115;BME280;28727;50.068;14.452;2022-08-24T03:37:32;99586.47;;;20.44;76.30
43115;BME280;28727;50.068;14.452;2022-08-24T03:40:07;99581.94;;;20.44;76.34
43115;BME280;28727;50.068;14.452;2022-08-24T03:42:54;99572.84;;;20.46;76.05
43115;BME280;28727;50.068;14.452;2022-08-24T03:45:26;99577.16;;;20.47;76.08
43115;BME280;28727;50.068;14.452;2022-08-24T03:47:59;99581.09;;;20.44;76.62
43115;BME280;28727;50.068;14.452;2022-08-24T03:50:34;99578.22;;;20.46;76.40
43115;BME280;28727;50.068;14.452;2022-08-24T03:53:05;99581.94;;;20.44;76.22
43115;BME280;28727;50.068;14.452;2022-08-24T03:55:37;99578.44;;;20.44;76.36
43115;BME280;28727;50.068;14.452;2022-08-24T03:58:09;99589.97;;;20.44;76.36
43115;BME280;28727;50.068;14.452;2022-08-24T04:00:42;99583.78;;;20.44;76.27
43115;BME280;28727;50.068;14.452;2022-08-24T04:03:17;99597.47;;;20.42;76.32
43115;BME280;28727;50.068;14.452;2022-08-24T04:05:49;99590.44;;;20.41;76.18
43115;BME280;28727;50.068;14.452;2022-08-24T04:08:22;99590.31;;;20.36;76.37
43115;BME280;28727;50.068;14.452;2022-08-24T04:10:54;99593.69;;;20.32;76.66
43115;BME280;28727;50.068;14.452;2022-08-24T04:13:29;99593.44;;;20.33;76.71
43115;BME280;28727;50.068;14.452;2022-08-24T04:16:09;99591.34;;;20.35;76.60
43115;BME280;28727;50.068;14.452;2022-08-24T04:18:42;99595.47;;;20.38;76.59
43115;BME280;28727;50.068;14.452;2022-08-24T04:21:21;99594.19;;;20.40;76.21
43115;BME280;28727;50.068;14.452;2022-08-24T04:23:54;99598.94;;;20.38;76.22
43115;BME280;28727;50.068;14.452;2022-08-24T04:26:29;99594.19;;;20.40;76.40
43115;BME280;28727;50.068;14.452;2022-08-24T04:29:18;99599.69;;;20.46;76.21
43115;BME280;28727;50.068;14.452;2022-08-24T04:31:54;99608.56;;;20.46;76.23
43115;BME280;28727;50.068;14.452;2022-08-24T04:34:27;99609.97;;;20.49;76.41
43115;BME280;28727;50.068;14.452;2022-08-24T04:37:00;99606.81;;;20.52;76.34
43115;BME280;28727;50.068;14.452;2022-08-24T04:39:33;99608.56;;;20.46;76.37
43115;BME280;28727;50.068;14.452;2022-08-24T04:42:14;99601.78;;;20.43;76.60
43115;BME280;28727;50.068;14.452;2022-08-24T04:44:46;99607.50;;;20.47;76.70
43115;BME280;28727;50.068;14.452;2022-08-24T04:47:18;99611.16;;;20.53;76.50
43115;BME280;28727;50.068;14.452;2022-08-24T04:49:51;99611.50;;;20.56;76.27
43115;BME280;28727;50.068;14.452;2022-08-24T04:52:23;99610.25;;;20.59;76.14
43115;BME280;28727;50.068;14.452;2022-08-24T04:54:55;99603.63;;;20.61;76.12
43115;BME280;28727;50.068;14.452;2022-08-24T04:57:29;99611.19;;;20.64;75.87
43115;BME280;28727;50.068;14.452;2022-08-24T05:00:04;99618.44;;;20.64;75.87
43115;BME280;28727;50.068;14.452;2022-08-24T05:02:37;99630.47;;;20.61;75.89
43115;BME280;28727;50.068;14.452;2022-08-24T05:05:16;99620.28;;;20.63;75.96
43115;BME280;28727;50.068;14.452;2022-08-24T05:07:50;99628.72;;;20.67;76.04
43115;BME280;28727;50.068;14.452;2022-08-24T05:10:27;99628.72;;;20.67;75.96
43115;BME280;28727;50.068;14.452;2022-08-24T05:13:04;99634.94;;;20.67;75.94
43115;BME280;28727;50.068;14.452;2022-08-24T05:15:44;99633.41;;;20.71;75.96
43115;BME280;28727;50.068;14.452;2022-08-24T05:18:16;99628.41;;;20.75;75.91
43115;BME280;28727;50.068;14.452;2022-08-24T05:20:48;99620.13;;;20.76;75.66
43115;BME280;28727;50.068;14.452;2022-08-24T05:23:21;99625.50;;;20.76;75.64
43115;BME280;28727;50.068;14.452;2022-08-24T05:26:09;99626.19;;;20.72;75.75
43115;BME280;28727;50.068;14.452;2022-08-24T05:28:42;99627.44;;;20.69;75.99
43115;BME280;28727;50.068;14.452;2022-08-24T05:31:20;99628.47;;;20.68;76.03
43115;BME280;28727;50.068;14.452;2022-08-24T05:33:52;99626.63;;;20.69;76.12
43115;BME280;28727;50.068;14.452;2022-08-24T05:36:30;99623.94;;;20.69;76.24
43115;BME280;28727;50.068;14.452;2022-08-24T05:39:05;99628.03;;;20.71;76.16
43115;BME280;28727;50.068;14.452;2022-08-24T05:41:44;99633.63;;;20.70;76.30
43115;BME280;28727;50.068;14.452;2022-08-24T05:44:23;99627.66;;;20.68;76.50
43115;BME280;28727;50.068;14.452;2022-08-24T05:47:01;99635.81;;;20.61;76.79
43115;BME280;28727;50.068;14.452;2022-08-24T05:49:37;99632.53;;;20.59;77.18
43115;BME280;28727;50.068;14.452;2022-08-24T05:52:13;99634.75;;;20.62;77.20
43115;BME280;28727;50.068;14.452;2022-08-24T05:54:44;99639.91;;;20.64;77.23
43115;BME280;28727;50.068;14.452;2022-08-24T05:57:22;99641.09;;;20.68;77.06
43115;BME280;28727;50.068;14.452;2022-08-24T06:00:16;99640.44;;;20.72;76.73
43115;BME280;28727;50.068;14.452;2022-08-24T06:02:51;99645.72;;;20.79;76.61
43115;BME280;28727;50.068;14.452;2022-08-24T06:05:25;99647.31;;;20.80;76.40
43115;BME280;28727;50.068;14.452;2022-08-24T06:07:57;99640.91;;;20.81;76.22
43115;BME280;28727;50.068;14.452;2022-08-24T06:10:29;99633.91;;;20.80;75.94
43115;BME280;28727;50.068;14.452;2022-08-24T06:13:08;99644.88;;;20.78;76.10
43115;BME280;28727;50.068;14.452;2022-08-24T06:15:40;99641.47;;;20.71;76.66
43115;BME280;28727;50.068;14.452;2022-08-24T06:18:16;99640.03;;;20.69;76.61
43115;BME280;28727;50.068;14.452;2022-08-24T06:20:48;99637.59;;;20.67;76.54
43115;BME280;28727;50.068;14.452;2022-08-24T06:23:19;99643.28;;;20.59;76.87
43115;BME280;28727;50.068;14.452;2022-08-24T06:25:59;99639.03;;;20.52;77.17
43115;BME280;28727;50.068;14.452;2022-08-24T06:28:54;99631.66;;;20.47;77.83
43115;BME280;28727;50.068;14.452;2022-08-24T06:31:26;99634.56;;;20.46;77.91
43115;BME280;28727;50.068;14.452;2022-08-24T06:33:59;99639.78;;;20.40;77.76
43115;BME280;28727;50.068;14.452;2022-08-24T06:36:32;99634.91;;;20.37;78.31
43115;BME280;28727;50.068;14.452;2022-08-24T06:39:04;99636.75;;;20.37;78.54
43115;BME280;28727;50.068;14.452;2022-08-24T06:41:42;99634.91;;;20.37;78.60
43115;BME280;28727;50.068;14.452;2022-08-24T06:44:15;99645.16;;;20.40;78.79
43115;BME280;28727;50.068;14.452;2022-08-24T06:46:55;99642.84;;;20.44;78.65
43115;BME280;28727;50.068;14.452;2022-08-24T06:49:26;99641.44;;;20.41;79.06
43115;BME280;28727;50.068;14.452;2022-08-24T06:51:58;99652.53;;;20.45;79.08
43115;BME280;28727;50.068;14.452;2022-08-24T06:54:31;99645.91;;;20.48;79.05
43115;BME280;28727;50.068;14.452;2022-08-24T06:57:03;99651.63;;;20.51;78.59
43115;BME280;28727;50.068;14.452;2022-08-24T06:59:36;99646.41;;;20.56;78.42
43115;BME280;28727;50.068;14.452;2022-08-24T07:02:08;99642.25;;;20.60;78.02
43115;BME280;28727;50.068;14.452;2022-08-24T07:04:41;99645.97;;;20.59;77.81
43115;BME280;28727;50.068;14.452;2022-08-24T07:07:19;99645.28;;;20.64;77.96
43115;BME280;28727;50.068;14.452;2022-08-24T07:09:51;99654.50;;;20.68;77.64
43115;BME280;28727;50.068;14.452;2022-08-24T07:12:23;99652.00;;;20.73;77.48
43115;BME280;28727;50.068;14.452;2022-08-24T07:14:55;99651.31;;;20.77;77.33
43115;BME280;28727;50.068;14.452;2022-08-24T07:17:27;99657.25;;;20.79;77.08
43115;BME280;28727;50.068;14.452;2022-08-24T07:20:03;99661.22;;;20.77;77.04
43115;BME280;28727;50.068;14.452;2022-08-24T07:23:06;99655.63;;;20.78;76.83
43115;BME280;28727;50.068;14.452;2022-08-24T07:25:38;99658.66;;;20.82;76.69
43115;BME280;28727;50.068;14.452;2022-08-24T07:28:13;99659.84;;;20.86;76.52
43115;BME280;28727;50.068;14.452;2022-08-24T07:30:46;99668.63;;;20.93;76.48
43115;BME280;28727;50.068;14.452;2022-08-24T07:33:19;99660.13;;;20.96;76.57
43115;BME280;28727;50.068;14.452;2022-08-24T07:35:50;99670.63;;;20.98;77.15
43115;BME280;28727;50.068;14.452;2022-08-24T07:38:26;99668.09;;;21.03;76.92
43115;BME280;28727;50.068;14.452;2022-08-24T07:40:59;99673.81;;;21.06;76.62
43115;BME280;28727;50.068;14.452;2022-08-24T07:43:51;99671.03;;;21.13;75.81
43115;BME280;28727;50.068;14.452;2022-08-24T07:46:23;99673.28;;;21.16;75.50
43115;BME280;28727;50.068;14.452;2022-08-24T07:48:57;99675.31;;;21.20;74.92
43115;BME280;28727;50.068;14.452;2022-08-24T07:51:42;99680.00;;;21.25;74.60
43115;BME280;28727;50.068;14.452;2022-08-24T07:54:19;99681.75;;;21.31;74.55
43115;BME280;28727;50.068;14.452;2022-08-24T07:56:54;99681.50;;;21.33;74.51
43115;BME280;28727;50.068;14.452;2022-08-24T07:59:26;99694.50;;;21.36;74.62
43115;BME280;28727;50.068;14.452;2022-08-24T08:01:59;99698.47;;;21.45;74.56
43115;BME280;28727;50.068;14.452;2022-08-24T08:04:31;99690.09;;;21.53;73.99
43115;BME280;28727;50.068;14.452;2022-08-24T08:07:03;99690.81;;;21.60;74.02
43115;BME280;28727;50.068;14.452;2022-08-24T08:09:39;99692.78;;;21.64;73.68
43115;BME280;28727;50.068;14.452;2022-08-24T08:12:14;99697.25;;;21.71;73.09
43115;BME280;28727;50.068;14.452;2022-08-24T08:14:56;99694.06;;;21.74;72.89
43115;BME280;28727;50.068;14.452;2022-08-24T08:17:28;99696.09;;;21.78;72.71
43115;BME280;28727;50.068;14.452;2022-08-24T08:20:00;99696.66;;;21.80;72.59
43115;BME280;28727;50.068;14.452;2022-08-24T08:22:33;99701.47;;;21.90;72.67
43115;BME280;28727;50.068;14.452;2022-08-24T08:25:54;99695.91;;;22.03;72.30
43115;BME280;28727;50.068;14.452;2022-08-24T08:28:38;99699.88;;;22.12;71.83
43115;BME280;28727;50.068;14.452;2022-08-24T08:31:13;99701.38;;;22.20;71.81
43115;BME280;28727;50.068;14.452;2022-08-24T08:33:45;99706.19;;;22.18;71.78
43115;BME280;28727;50.068;14.452;2022-08-24T08:36:17;99707.94;;;22.24;72.03
43115;BME280;28727;50.068;14.452;2022-08-24T08:38:54;99708.88;;;22.18;71.70
43115;BME280;28727;50.068;14.452;2022-08-24T08:53:44;99703.09;;;22.49;71.62
43115;BME280;28727;50.068;14.452;2022-08-24T09:13:58;99697.66;;;23.29;68.12
43115;BME280;28727;50.068;14.452;2022-08-24T09:22:41;99702.56;;;23.32;67.77
43115;BME280;28727;50.068;14.452;2022-08-24T09:25:31;99704.00;;;23.51;66.56
43115;BME280;28727;50.068;14.452;2022-08-24T09:43:10;99694.00;;;24.19;64.34
43115;BME280;28727;50.068;14.452;2022-08-24T09:52:01;99689.31;;;24.31;61.36
43115;BME280;28727;50.068;14.452;2022-08-24T10:01:06;99689.19;;;24.64;61.31
43115;BME280;28727;50.068;14.452;2022-08-24T10:12:40;99688.38;;;25.07;59.91
43115;BME280;28727;50.068;14.452;2022-08-24T10:15:33;99693.38;;;25.20;58.22
43115;BME280;28727;50.068;14.452;2022-08-24T10:18:24;99685.09;;;25.32;58.34
43115;BME280;28727;50.068;14.452;2022-08-24T10:33:29;99684.13;;;25.16;57.61
43115;BME280;28727;50.068;14.452;2022-08-24T10:36:17;99679.47;;;25.39;57.36
43115;BME280;28727;50.068;14.452;2022-08-24T10:42:21;99666.16;;;25.64;56.48
43115;BME280;28727;50.068;14.452;2022-08-24T10:53:55;99659.09;;;26.52;53.90
43115;BME280;28727;50.068;14.452;2022-08-24T10:59:25;99668.47;;;26.24;54.18
43115;BME280;28727;50.068;14.452;2022-08-24T11:02:07;99672.69;;;26.10;54.63
43115;BME280;28727;50.068;14.452;2022-08-24T11:04:54;99675.03;;;25.91;54.56
43115;BME280;28727;50.068;14.452;2022-08-24T11:07:27;99671.50;;;25.91;54.85
43115;BME280;28727;50.068;14.452;2022-08-24T11:10:02;99671.09;;;26.09;54.39
43115;BME280;28727;50.068;14.452;2022-08-24T11:12:40;99664.50;;;26.42;54.10
43115;BME280;28727;50.068;14.452;2022-08-24T11:15:21;99668.31;;;26.51;53.60
43115;BME280;28727;50.068;14.452;2022-08-24T11:17:56;99670.88;;;26.78;53.58
43115;BME280;28727;50.068;14.452;2022-08-24T11:20:32;99666.53;;;26.87;52.50
43115;BME280;28727;50.068;14.452;2022-08-24T11:23:08;99665.81;;;27.07;52.59
43115;BME280;28727;50.068;14.452;2022-08-24T11:26:00;99669.09;;;27.29;51.79
43115;BME280;28727;50.068;14.452;2022-08-24T11:28:44;99666.09;;;27.36;52.10
43115;BME280;28727;50.068;14.452;2022-08-24T11:31:43;99667.72;;;27.16;52.27
43115;BME280;28727;50.068;14.452;2022-08-24T11:34:36;99666.06;;;27.10;52.60
43115;BME280;28727;50.068;14.452;2022-08-24T11:37:13;99667.13;;;26.89;51.72
43115;BME280;28727;50.068;14.452;2022-08-24T11:39:46;99670.34;;;26.86;52.77
43115;BME280;28727;50.068;14.452;2022-08-24T11:45:12;99670.34;;;26.86;53.95
43115;BME280;28727;50.068;14.452;2022-08-24T11:47:57;99660.91;;;26.99;53.41
43115;BME280;28727;50.068;14.452;2022-08-24T11:50:44;99666.88;;;27.16;52.95
43115;BME280;28727;50.068;14.452;2022-08-24T11:53:57;99663.66;;;27.34;52.30
43115;BME280;28727;50.068;14.452;2022-08-24T11:56:43;99673.44;;;27.40;52.28
43115;BME280;28727;50.068;14.452;2022-08-24T12:02:10;99663.13;;;27.47;50.87
43115;BME280;28727;50.068;14.452;2022-08-24T12:05:07;99661.25;;;27.53;51.03
43115;BME280;28727;50.068;14.452;2022-08-24T12:13:56;99655.53;;;27.75;49.79
43115;BME280;28727;50.068;14.452;2022-08-24T12:16:48;99653.31;;;27.87;50.10
43115;BME280;28727;50.068;14.452;2022-08-24T12:19:31;99652.53;;;27.81;49.97
43115;BME280;28727;50.068;14.452;2022-08-24T12:22:08;99653.59;;;27.95;49.92
43115;BME280;28727;50.068;14.452;2022-08-24T12:24:42;99653.03;;;27.93;48.89
43115;BME280;28727;50.068;14.452;2022-08-24T12:27:29;99648.69;;;28.02;48.69
43115;BME280;28727;50.068;14.452;2022-08-24T12:30:04;99641.72;;;28.56;47.70
43115;BME280;28727;50.068;14.452;2022-08-24T12:33:01;99636.53;;;28.59;47.81
43115;BME280;28727;50.068;14.452;2022-08-24T12:35:41;99633.34;;;28.47;47.34
43115;BME280;28727;50.068;14.452;2022-08-24T12:38:36;99631.84;;;28.80;46.58
43115;BME280;28727;50.068;14.452;2022-08-24T12:41:14;99630.09;;;28.94;45.80
43115;BME280;28727;50.068;14.452;2022-08-24T12:44:19;99626.19;;;29.10;46.87
43115;BME280;28727;50.068;14.452;2022-08-24T12:46:55;99620.97;;;29.19;46.89
43115;BME280;28727;50.068;14.452;2022-08-24T12:49:42;99628.19;;;29.34;45.50
43115;BME280;28727;50.068;14.452;2022-08-24T12:52:49;99640.41;;;29.41;44.44
43115;BME280;28727;50.068;14.452;2022-08-24T12:55:51;99623.00;;;29.03;45.63
43115;BME280;28727;50.068;14.452;2022-08-24T13:01:36;99616.97;;;29.45;46.09
43115;BME280;28727;50.068;14.452;2022-08-24T13:04:30;99623.03;;;29.66;45.84
43115;BME280;28727;50.068;14.452;2022-08-24T13:09:44;99621.97;;;29.33;46.00
43115;BME280;28727;50.068;14.452;2022-08-24T13:20:53;99621.22;;;29.56;44.59
43115;BME280;28727;50.068;14.452;2022-08-24T13:23:25;99623.69;;;29.19;45.45
43115;BME280;28727;50.068;14.452;2022-08-24T13:26:21;99622.09;;;28.74;45.51
43115;BME280;28727;50.068;14.452;2022-08-24T13:28:54;99616.03;;;28.82;45.63
43115;BME280;28727;50.068;14.452;2022-08-24T13:31:35;99623.56;;;28.95;45.30
43115;BME280;28727;50.068;14.452;2022-08-24T13:37:16;99622.09;;;28.74;46.79
43115;BME280;28727;50.068;14.452;2022-08-24T13:40:05;99625.59;;;28.69;46.03
43115;BME280;28727;50.068;14.452;2022-08-24T13:43:11;99622.09;;;28.74;46.42
43115;BME280;28727;50.068;14.452;2022-08-24T13:45:55;99623.69;;;28.75;46.21
43115;BME280;28727;50.068;14.452;2022-08-24T13:51:42;99619.69;;;28.57;45.84
43115;BME280;28727;50.068;14.452;2022-08-24T13:54:25;99612.44;;;28.42;46.62
43115;BME280;28727;50.068;14.452;2022-08-24T13:57:27;99610.00;;;28.36;47.13
43115;BME280;28727;50.068;14.452;2022-08-24T14:00:14;99613.78;;;28.45;46.79
43115;BME280;28727;50.068;14.452;2022-08-24T14:03:23;99620.00;;;28.45;46.16
43115;BME280;28727;50.068;14.452;2022-08-24T14:09:00;99614.72;;;28.20;47.77
43115;BME280;28727;50.068;14.452;2022-08-24T14:11:40;99612.53;;;28.07;47.65
43115;BME280;28727;50.068;14.452;2022-08-24T14:17:15;99607.97;;;27.87;47.72
43115;BME280;28727;50.068;14.452;2022-08-24T14:35:09;99604.78;;;27.45;49.18
43115;BME280;28727;50.068;14.452;2022-08-24T14:40:39;99603.16;;;27.74;47.98
43115;BME280;28727;50.068;14.452;2022-08-24T14:43:22;99602.84;;;27.86;46.77
43115;BME280;28727;50.068;14.452;2022-08-24T14:46:24;99596.00;;;28.03;46.62
43115;BME280;28727;50.068;14.452;2022-08-24T14:49:33;99591.69;;;27.97;47.02
43115;BME280;28727;50.068;14.452;2022-08-24T14:52:20;99603.09;;;27.89;47.87
43115;BME280;28727;50.068;14.452;2022-08-24T14:55:18;99602.06;;;27.65;48.09
43115;BME280;28727;50.068;14.452;2022-08-24T14:58:13;99597.44;;;27.45;49.01
43115;BME280;28727;50.068;14.452;2022-08-24T15:06:51;99594.22;;;27.03;49.76
43115;BME280;28727;50.068;14.452;2022-08-24T15:09:32;99596.84;;;26.87;49.88
43115;BME280;28727;50.068;14.452;2022-08-24T15:12:19;99590.88;;;26.75;50.44
43115;BME280;28727;50.068;14.452;2022-08-24T15:14:58;99594.38;;;26.71;50.70
43115;BME280;28727;50.068;14.452;2022-08-24T15:21:11;99593.28;;;26.57;51.63
43115;BME280;28727;50.068;14.452;2022-08-24T15:29:55;99584.31;;;26.51;51.14
43115;BME280;28727;50.068;14.452;2022-08-24T15:32:44;99587.56;;;26.53;51.17
43115;BME280;28727;50.068;14.452;2022-08-24T15:38:24;99587.56;;;26.43;51.62
43115;BME280;28727;50.068;14.452;2022-08-24T15:46:36;99585.66;;;26.38;51.89
43115;BME280;28727;50.068;14.452;2022-08-24T15:49:24;99589.72;;;26.41;51.91
43115;BME280;28727;50.068;14.452;2022-08-24T15:52:09;99578.63;;;26.47;52.49
43115;BME280;28727;50.068;14.452;2022-08-24T15:55:02;99579.44;;;26.53;52.41
43115;BME280;28727;50.068;14.452;2022-08-24T15:57:38;99577.53;;;26.43;52.23
43115;BME280;28727;50.068;14.452;2022-08-24T16:00:15;99576.72;;;26.38;53.25
43115;BME280;28727;50.068;14.452;2022-08-24T16:03:19;99563.41;;;26.31;52.97
43115;BME280;28727;50.068;14.452;2022-08-24T16:05:55;99562.53;;;26.21;53.37
43115;BME280;28727;50.068;14.452;2022-08-24T16:08:51;99559.00;;;26.15;53.60
43115;BME280;28727;50.068;14.452;2022-08-24T16:14:36;99557.03;;;26.05;54.57
43115;BME280;28727;50.068;14.452;2022-08-24T16:17:37;99558.94;;;26.05;54.80
43115;BME280;28727;50.068;14.452;2022-08-24T16:20:32;99553.75;;;25.93;54.89
43115;BME280;28727;50.068;14.452;2022-08-24T16:23:11;99551.28;;;25.87;55.32
43115;BME280;28727;50.068;14.452;2022-08-24T16:25:44;99550.44;;;25.86;55.33
43115;BME280;28727;50.068;14.452;2022-08-24T16:31:03;99554.75;;;25.77;55.73
43115;BME280;28727;50.068;14.452;2022-08-24T16:33:45;99556.63;;;25.77;55.66
43115;BME280;28727;50.068;14.452;2022-08-24T16:36:18;99562.59;;;25.74;55.80
43115;BME280;28727;50.068;14.452;2022-08-24T16:38:50;99563.91;;;25.71;55.72
43115;BME280;28727;50.068;14.452;2022-08-24T16:41:23;99567.69;;;25.70;55.78
43115;BME280;28727;50.068;14.452;2022-08-24T16:43:55;99569.22;;;25.56;56.30
43115;BME280;28727;50.068;14.452;2022-08-24T16:46:26;99578.09;;;25.51;56.08
43115;BME280;28727;50.068;14.452;2022-08-24T16:48:58;99567.78;;;25.43;56.25
43115;BME280;28727;50.068;14.452;2022-08-24T16:51:33;99565.34;;;25.42;56.25
43115;BME280;28727;50.068;14.452;2022-08-24T16:54:09;99572.13;;;25.44;56.54